Jerusalem, OH (43747)

05:47 AM EDT die 27o August, anno 2016 (GMT -0400)
Buckeye Springs Lodge | | Change Station

Elev 1027 ft 39.66 °N, 81.07 °W | Updated 4 minutes ago

Clear
Serena
68.7 °F
Feels Like 68.7 °F
N
0.0
Ventus Variabilis Ventus from Auster

Hodie
High -- | Low -- °F
--% Chance of Precip.
Yesterday
High -- | Low -- °F
Precip. -- in
Pressio 30.16 in
Visibilitas 10.0 milia passuum
Clouds Serena
Frigus in quo Ros apparet 67 °F
Umor 95%
Rainfall 0.00 in
Snow Depth Not available.
6:48 AM 8:02 PM
Waning Crescent, 26% visible
METAR KHLG 270853Z AUTO 08003KT 10SM CLR 21/18 A3018 RMK AO2 SLP211 T02060178 53005
Pressio 30.16 in
Visibilitas 10.0 milia passuum
Clouds Serena
Frigus in quo Ros apparet 67 °F
Umor 95%
Rainfall 0.00 in
Snow Depth Not available.
6:48 AM 8:02 PM
Waning Crescent, 26% visible
METAR KHLG 270853Z AUTO 08003KT 10SM CLR 21/18 A3018 RMK AO2 SLP211 T02060178 53005

10-Day Weather Forecast

Almanac

Astronomy

Aug. 27, 2016 Rise Set
Actual Time
Civil Twilight
Nautical Twilight
Astronomical Twilight
Moon
Length Of Visible Light
Length of Day
Tomorrow will be .
, % of the Moon is Illuminated

Today's Extremes

State Highs State Lows

Community

WunderPhotos

Upload Photos

1,935,313 photos uploaded!

WunderBlog® & News

Nearby

Air Quality

  Air Quality AQ Index Pollutant
Not available.

Snow Depth

Station Depth Elevation

Earthquake Activity

City Distance Mag. Time & Date
Minimum magnitude displayed is 2.5.

Coastal Water Temperatures

Locus Calor

Stations

Nearby Weather Stations

Station Location Temp Frigus Venti Frigus in quo Ros apparet Umor Ventus Precip. Elev Renovata Type
                   

Watches & Warnings

There are currently no watches in effect.